sensor_id;sensor_type;location;lat;lon;timestamp;P1;durP1;ratioP1;P2;durP2;ratioP2
9712;SDS011;4895;50.926;6.870;2023-07-31T00:01:01;11.73;;;4.23;;
9712;SDS011;4895;50.926;6.870;2023-07-31T00:03:26;16.63;;;4.40;;
9712;SDS011;4895;50.926;6.870;2023-07-31T00:05:51;9.77;;;4.17;;
9712;SDS011;4895;50.926;6.870;2023-07-31T00:08:17;9.60;;;4.00;;
9712;SDS011;4895;50.926;6.870;2023-07-31T00:10:42;10.83;;;4.53;;
9712;SDS011;4895;50.926;6.870;2023-07-31T00:13:07;11.80;;;4.73;;
9712;SDS011;4895;50.926;6.870;2023-07-31T00:15:32;16.27;;;4.70;;
9712;SDS011;4895;50.926;6.870;2023-07-31T00:17:58;12.03;;;5.00;;
9712;SDS011;4895;50.926;6.870;2023-07-31T00:20:23;9.60;;;4.40;;
9712;SDS011;4895;50.926;6.870;2023-07-31T00:22:48;10.00;;;4.33;;
9712;SDS011;4895;50.926;6.870;2023-07-31T00:25:14;14.33;;;4.00;;
9712;SDS011;4895;50.926;6.870;2023-07-31T00:27:39;9.70;;;4.03;;
9712;SDS011;4895;50.926;6.870;2023-07-31T00:30:09;13.03;;;5.53;;
9712;SDS011;4895;50.926;6.870;2023-07-31T00:32:35;11.80;;;5.10;;
9712;SDS011;4895;50.926;6.870;2023-07-31T00:35:00;7.50;;;4.10;;
9712;SDS011;4895;50.926;6.870;2023-07-31T00:37:25;9.27;;;3.90;;
9712;SDS011;4895;50.926;6.870;2023-07-31T00:39:51;11.23;;;4.27;;
9712;SDS011;4895;50.926;6.870;2023-07-31T00:42:16;7.93;;;4.00;;
9712;SDS011;4895;50.926;6.870;2023-07-31T00:44:41;8.90;;;4.30;;
9712;SDS011;4895;50.926;6.870;2023-07-31T00:47:07;9.90;;;4.20;;
9712;SDS011;4895;50.926;6.870;2023-07-31T00:49:32;11.63;;;3.23;;
9712;SDS011;4895;50.926;6.870;2023-07-31T00:51:58;7.33;;;3.80;;
9712;SDS011;4895;50.926;6.870;2023-07-31T00:54:24;7.40;;;3.60;;
9712;SDS011;4895;50.926;6.870;2023-07-31T00:56:49;7.20;;;3.70;;
9712;SDS011;4895;50.926;6.870;2023-07-31T00:59:15;8.90;;;3.77;;
9712;SDS011;4895;50.926;6.870;2023-07-31T01:01:41;9.03;;;4.00;;
9712;SDS011;4895;50.926;6.870;2023-07-31T01:04:06;8.57;;;4.03;;
9712;SDS011;4895;50.926;6.870;2023-07-31T01:11:57;9.43;;;3.70;;
9712;SDS011;4895;50.926;6.870;2023-07-31T01:14:26;8.60;;;3.40;;
9712;SDS011;4895;50.926;6.870;2023-07-31T01:16:51;9.03;;;3.97;;
9712;SDS011;4895;50.926;6.870;2023-07-31T01:19:18;9.60;;;3.90;;
9712;SDS011;4895;50.926;6.870;2023-07-31T01:25:15;8.23;;;3.30;;
9712;SDS011;4895;50.926;6.870;2023-07-31T01:27:46;9.37;;;4.40;;
9712;SDS011;4895;50.926;6.870;2023-07-31T01:30:21;8.20;;;3.80;;
9712;SDS011;4895;50.926;6.870;2023-07-31T01:32:49;7.07;;;3.50;;
9712;SDS011;4895;50.926;6.870;2023-07-31T01:35:15;9.80;;;2.90;;
9712;SDS011;4895;50.926;6.870;2023-07-31T01:37:41;6.83;;;3.50;;
9712;SDS011;4895;50.926;6.870;2023-07-31T01:40:06;6.67;;;3.03;;
9712;SDS011;4895;50.926;6.870;2023-07-31T01:42:32;10.50;;;4.00;;
9712;SDS011;4895;50.926;6.870;2023-07-31T01:44:57;6.50;;;3.40;;
9712;SDS011;4895;50.926;6.870;2023-07-31T01:47:23;9.27;;;3.87;;
9712;SDS011;4895;50.926;6.870;2023-07-31T01:49:48;9.80;;;3.73;;
9712;SDS011;4895;50.926;6.870;2023-07-31T01:52:14;6.10;;;3.27;;
9712;SDS011;4895;50.926;6.870;2023-07-31T01:54:39;5.53;;;3.33;;
9712;SDS011;4895;50.926;6.870;2023-07-31T01:57:04;10.53;;;3.90;;
9712;SDS011;4895;50.926;6.870;2023-07-31T01:59:30;8.60;;;3.80;;
9712;SDS011;4895;50.926;6.870;2023-07-31T02:01:55;8.73;;;3.60;;
9712;SDS011;4895;50.926;6.870;2023-07-31T02:04:20;9.80;;;3.80;;
9712;SDS011;4895;50.926;6.870;2023-07-31T02:06:46;9.20;;;4.10;;
9712;SDS011;4895;50.926;6.870;2023-07-31T02:09:11;15.40;;;4.00;;
9712;SDS011;4895;50.926;6.870;2023-07-31T02:11:36;7.93;;;3.67;;
9712;SDS011;4895;50.926;6.870;2023-07-31T02:14:01;9.70;;;4.07;;
9712;SDS011;4895;50.926;6.870;2023-07-31T02:16:27;8.80;;;3.83;;
9712;SDS011;4895;50.926;6.870;2023-07-31T02:18:52;9.97;;;4.10;;
9712;SDS011;4895;50.926;6.870;2023-07-31T02:21:17;14.53;;;4.27;;
9712;SDS011;4895;50.926;6.870;2023-07-31T02:23:42;7.80;;;3.30;;
9712;SDS011;4895;50.926;6.870;2023-07-31T02:26:08;6.97;;;3.90;;
9712;SDS011;4895;50.926;6.870;2023-07-31T02:28:33;9.17;;;3.90;;
9712;SDS011;4895;50.926;6.870;2023-07-31T02:30:58;12.90;;;4.07;;
9712;SDS011;4895;50.926;6.870;2023-07-31T02:33:23;10.90;;;3.57;;
9712;SDS011;4895;50.926;6.870;2023-07-31T02:35:49;10.50;;;4.20;;
9712;SDS011;4895;50.926;6.870;2023-07-31T02:38:14;16.60;;;4.07;;
9712;SDS011;4895;50.926;6.870;2023-07-31T02:40:39;8.37;;;3.80;;
9712;SDS011;4895;50.926;6.870;2023-07-31T02:43:06;11.50;;;4.60;;
9712;SDS011;4895;50.926;6.870;2023-07-31T02:45:31;9.43;;;3.80;;
9712;SDS011;4895;50.926;6.870;2023-07-31T02:47:57;11.63;;;4.13;;
9712;SDS011;4895;50.926;6.870;2023-07-31T02:50:22;16.77;;;4.80;;
9712;SDS011;4895;50.926;6.870;2023-07-31T02:52:47;15.77;;;4.80;;
9712;SDS011;4895;50.926;6.870;2023-07-31T02:55:12;6.80;;;3.63;;
9712;SDS011;4895;50.926;6.870;2023-07-31T02:57:38;9.37;;;4.30;;
9712;SDS011;4895;50.926;6.870;2023-07-31T03:00:03;11.30;;;4.10;;
9712;SDS011;4895;50.926;6.870;2023-07-31T03:02:31;12.50;;;4.50;;
9712;SDS011;4895;50.926;6.870;2023-07-31T03:04:57;13.13;;;3.83;;
9712;SDS011;4895;50.926;6.870;2023-07-31T03:07:22;10.80;;;4.37;;
9712;SDS011;4895;50.926;6.870;2023-07-31T03:09:47;15.30;;;4.37;;
9712;SDS011;4895;50.926;6.870;2023-07-31T03:12:12;16.40;;;4.80;;
9712;SDS011;4895;50.926;6.870;2023-07-31T03:14:38;10.13;;;4.30;;
9712;SDS011;4895;50.926;6.870;2023-07-31T03:17:03;9.10;;;3.63;;
9712;SDS011;4895;50.926;6.870;2023-07-31T03:19:30;11.20;;;4.27;;
9712;SDS011;4895;50.926;6.870;2023-07-31T03:21:56;14.70;;;4.10;;
9712;SDS011;4895;50.926;6.870;2023-07-31T03:24:22;9.60;;;4.17;;
9712;SDS011;4895;50.926;6.870;2023-07-31T03:26:47;13.60;;;4.90;;
9712;SDS011;4895;50.926;6.870;2023-07-31T03:29:12;8.13;;;3.23;;
9712;SDS011;4895;50.926;6.870;2023-07-31T03:31:37;12.33;;;4.60;;
9712;SDS011;4895;50.926;6.870;2023-07-31T03:34:03;13.87;;;4.37;;
9712;SDS011;4895;50.926;6.870;2023-07-31T03:36:28;11.07;;;5.07;;
9712;SDS011;4895;50.926;6.870;2023-07-31T03:38:53;11.97;;;4.73;;
9712;SDS011;4895;50.926;6.870;2023-07-31T03:41:18;9.63;;;3.93;;
9712;SDS011;4895;50.926;6.870;2023-07-31T03:43:45;11.97;;;4.60;;
9712;SDS011;4895;50.926;6.870;2023-07-31T03:46:11;10.67;;;4.07;;
9712;SDS011;4895;50.926;6.870;2023-07-31T03:48:36;7.90;;;4.07;;
9712;SDS011;4895;50.926;6.870;2023-07-31T03:51:02;14.03;;;5.77;;
9712;SDS011;4895;50.926;6.870;2023-07-31T03:53:28;15.00;;;5.10;;
9712;SDS011;4895;50.926;6.870;2023-07-31T03:55:53;9.00;;;5.43;;
9712;SDS011;4895;50.926;6.870;2023-07-31T03:58:18;10.53;;;5.37;;
9712;SDS011;4895;50.926;6.870;2023-07-31T04:00:43;12.97;;;4.87;;
9712;SDS011;4895;50.926;6.870;2023-07-31T04:03:09;12.20;;;5.10;;
9712;SDS011;4895;50.926;6.870;2023-07-31T04:05:37;13.37;;;4.07;;
9712;SDS011;4895;50.926;6.870;2023-07-31T04:08:03;15.73;;;5.53;;
9712;SDS011;4895;50.926;6.870;2023-07-31T04:10:28;10.03;;;4.83;;
9712;SDS011;4895;50.926;6.870;2023-07-31T04:12:54;11.70;;;4.97;;
9712;SDS011;4895;50.926;6.870;2023-07-31T04:15:20;11.90;;;5.50;;
9712;SDS011;4895;50.926;6.870;2023-07-31T04:17:45;21.47;;;5.60;;
9712;SDS011;4895;50.926;6.870;2023-07-31T04:20:10;14.53;;;4.50;;
9712;SDS011;4895;50.926;6.870;2023-07-31T04:22:36;12.70;;;5.43;;
9712;SDS011;4895;50.926;6.870;2023-07-31T04:25:01;9.10;;;4.50;;
9712;SDS011;4895;50.926;6.870;2023-07-31T04:27:26;13.20;;;5.20;;
9712;SDS011;4895;50.926;6.870;2023-07-31T04:29:51;13.30;;;4.50;;
9712;SDS011;4895;50.926;6.870;2023-07-31T04:32:17;12.50;;;5.17;;
9712;SDS011;4895;50.926;6.870;2023-07-31T04:34:42;10.77;;;4.67;;
9712;SDS011;4895;50.926;6.870;2023-07-31T04:37:08;16.00;;;4.67;;
9712;SDS011;4895;50.926;6.870;2023-07-31T04:39:33;9.10;;;4.40;;
9712;SDS011;4895;50.926;6.870;2023-07-31T04:41:58;11.33;;;4.30;;
9712;SDS011;4895;50.926;6.870;2023-07-31T04:44:24;8.30;;;4.40;;
9712;SDS011;4895;50.926;6.870;2023-07-31T04:46:49;8.80;;;4.23;;
9712;SDS011;4895;50.926;6.870;2023-07-31T04:49:14;11.70;;;4.90;;
9712;SDS011;4895;50.926;6.870;2023-07-31T04:51:39;8.93;;;4.47;;
9712;SDS011;4895;50.926;6.870;2023-07-31T04:54:05;14.90;;;4.90;;
9712;SDS011;4895;50.926;6.870;2023-07-31T04:56:30;10.80;;;4.33;;
9712;SDS011;4895;50.926;6.870;2023-07-31T04:58:55;9.23;;;4.63;;
9712;SDS011;4895;50.926;6.870;2023-07-31T05:01:21;8.40;;;4.67;;
9712;SDS011;4895;50.926;6.870;2023-07-31T05:03:46;11.73;;;4.63;;
9712;SDS011;4895;50.926;6.870;2023-07-31T05:06:11;11.37;;;4.43;;
9712;SDS011;4895;50.926;6.870;2023-07-31T05:08:38;8.43;;;4.60;;
9712;SDS011;4895;50.926;6.870;2023-07-31T05:11:03;8.00;;;4.40;;
9712;SDS011;4895;50.926;6.870;2023-07-31T05:13:29;10.43;;;5.07;;
9712;SDS011;4895;50.926;6.870;2023-07-31T05:15:54;9.40;;;4.67;;
9712;SDS011;4895;50.926;6.870;2023-07-31T05:18:19;6.00;;;3.83;;
9712;SDS011;4895;50.926;6.870;2023-07-31T05:20:44;8.50;;;4.37;;
9712;SDS011;4895;50.926;6.870;2023-07-31T05:23:10;7.80;;;4.90;;
9712;SDS011;4895;50.926;6.870;2023-07-31T05:25:35;11.03;;;4.30;;
9712;SDS011;4895;50.926;6.870;2023-07-31T05:28:00;7.53;;;4.80;;
9712;SDS011;4895;50.926;6.870;2023-07-31T05:30:25;6.73;;;3.73;;
9712;SDS011;4895;50.926;6.870;2023-07-31T05:32:51;11.40;;;4.63;;
9712;SDS011;4895;50.926;6.870;2023-07-31T05:35:16;12.10;;;4.23;;
9712;SDS011;4895;50.926;6.870;2023-07-31T05:37:41;8.93;;;4.47;;
9712;SDS011;4895;50.926;6.870;2023-07-31T05:40:07;16.20;;;4.60;;
9712;SDS011;4895;50.926;6.870;2023-07-31T05:42:32;9.93;;;4.23;;
9712;SDS011;4895;50.926;6.870;2023-07-31T05:44:57;9.60;;;4.10;;
9712;SDS011;4895;50.926;6.870;2023-07-31T05:47:23;9.07;;;4.47;;
9712;SDS011;4895;50.926;6.870;2023-07-31T05:49:48;10.93;;;4.50;;
9712;SDS011;4895;50.926;6.870;2023-07-31T05:52:14;7.53;;;3.97;;
9712;SDS011;4895;50.926;6.870;2023-07-31T05:54:40;9.60;;;4.07;;
9712;SDS011;4895;50.926;6.870;2023-07-31T05:57:05;12.70;;;4.37;;
9712;SDS011;4895;50.926;6.870;2023-07-31T05:59:30;12.07;;;4.23;;
9712;SDS011;4895;50.926;6.870;2023-07-31T06:01:58;7.70;;;4.30;;
9712;SDS011;4895;50.926;6.870;2023-07-31T06:04:23;7.20;;;3.87;;
9712;SDS011;4895;50.926;6.870;2023-07-31T06:06:50;8.17;;;4.27;;
9712;SDS011;4895;50.926;6.870;2023-07-31T06:09:16;12.57;;;4.77;;
9712;SDS011;4895;50.926;6.870;2023-07-31T06:11:41;9.90;;;4.13;;
9712;SDS011;4895;50.926;6.870;2023-07-31T06:14:06;9.80;;;3.97;;
9712;SDS011;4895;50.926;6.870;2023-07-31T06:16:31;22.60;;;4.30;;
9712;SDS011;4895;50.926;6.870;2023-07-31T06:18:57;8.80;;;4.40;;
9712;SDS011;4895;50.926;6.870;2023-07-31T06:21:22;23.03;;;5.27;;
9712;SDS011;4895;50.926;6.870;2023-07-31T06:23:47;16.50;;;4.87;;
9712;SDS011;4895;50.926;6.870;2023-07-31T06:26:13;10.70;;;4.17;;
9712;SDS011;4895;50.926;6.870;2023-07-31T06:28:38;9.40;;;4.70;;
9712;SDS011;4895;50.926;6.870;2023-07-31T06:31:03;7.33;;;4.13;;
9712;SDS011;4895;50.926;6.870;2023-07-31T06:33:28;7.63;;;4.23;;
9712;SDS011;4895;50.926;6.870;2023-07-31T06:35:54;6.90;;;4.43;;
9712;SDS011;4895;50.926;6.870;2023-07-31T06:38:21;9.50;;;4.20;;
9712;SDS011;4895;50.926;6.870;2023-07-31T06:40:47;8.43;;;4.60;;
9712;SDS011;4895;50.926;6.870;2023-07-31T06:43:14;11.80;;;4.97;;
9712;SDS011;4895;50.926;6.870;2023-07-31T06:45:39;10.10;;;4.70;;
9712;SDS011;4895;50.926;6.870;2023-07-31T06:48:04;8.03;;;4.60;;
9712;SDS011;4895;50.926;6.870;2023-07-31T06:50:30;6.53;;;3.80;;
9712;SDS011;4895;50.926;6.870;2023-07-31T06:52:56;12.37;;;4.53;;
9712;SDS011;4895;50.926;6.870;2023-07-31T06:55:21;8.70;;;4.83;;
9712;SDS011;4895;50.926;6.870;2023-07-31T06:57:47;10.20;;;4.47;;
9712;SDS011;4895;50.926;6.870;2023-07-31T07:00:13;7.50;;;4.63;;
9712;SDS011;4895;50.926;6.870;2023-07-31T07:02:39;8.53;;;5.07;;
9712;SDS011;4895;50.926;6.870;2023-07-31T07:05:04;12.00;;;5.07;;
9712;SDS011;4895;50.926;6.870;2023-07-31T07:07:31;7.43;;;4.60;;
9712;SDS011;4895;50.926;6.870;2023-07-31T07:09:57;9.77;;;4.60;;
9712;SDS011;4895;50.926;6.870;2023-07-31T07:12:24;12.20;;;4.50;;
9712;SDS011;4895;50.926;6.870;2023-07-31T07:14:49;17.20;;;5.07;;
9712;SDS011;4895;50.926;6.870;2023-07-31T07:17:15;9.00;;;4.80;;
9712;SDS011;4895;50.926;6.870;2023-07-31T07:19:40;11.60;;;4.20;;
9712;SDS011;4895;50.926;6.870;2023-07-31T07:22:05;15.27;;;4.90;;
9712;SDS011;4895;50.926;6.870;2023-07-31T07:24:31;8.23;;;4.27;;
9712;SDS011;4895;50.926;6.870;2023-07-31T07:26:56;6.90;;;4.40;;
9712;SDS011;4895;50.926;6.870;2023-07-31T07:29:21;9.10;;;4.03;;
9712;SDS011;4895;50.926;6.870;2023-07-31T07:31:47;9.40;;;4.60;;
9712;SDS011;4895;50.926;6.870;2023-07-31T07:34:12;10.50;;;4.43;;
9712;SDS011;4895;50.926;6.870;2023-07-31T07:36:37;8.67;;;4.57;;
9712;SDS011;4895;50.926;6.870;2023-07-31T07:39:03;11.03;;;4.43;;
9712;SDS011;4895;50.926;6.870;2023-07-31T07:41:28;7.53;;;4.03;;
9712;SDS011;4895;50.926;6.870;2023-07-31T07:43:54;9.00;;;4.37;;
9712;SDS011;4895;50.926;6.870;2023-07-31T07:46:19;11.70;;;4.43;;
9712;SDS011;4895;50.926;6.870;2023-07-31T07:48:44;11.07;;;4.63;;
9712;SDS011;4895;50.926;6.870;2023-07-31T07:51:09;8.50;;;3.87;;
9712;SDS011;4895;50.926;6.870;2023-07-31T07:53:35;9.00;;;4.00;;
9712;SDS011;4895;50.926;6.870;2023-07-31T07:56:00;5.50;;;3.97;;
9712;SDS011;4895;50.926;6.870;2023-07-31T07:58:25;12.50;;;4.40;;
9712;SDS011;4895;50.926;6.870;2023-07-31T08:00:51;14.10;;;4.30;;
9712;SDS011;4895;50.926;6.870;2023-07-31T08:03:17;13.27;;;4.60;;
9712;SDS011;4895;50.926;6.870;2023-07-31T08:05:42;11.17;;;4.70;;
9712;SDS011;4895;50.926;6.870;2023-07-31T08:08:08;7.07;;;3.93;;
9712;SDS011;4895;50.926;6.870;2023-07-31T08:10:33;8.20;;;3.83;;
9712;SDS011;4895;50.926;6.870;2023-07-31T08:12:58;9.30;;;4.00;;
9712;SDS011;4895;50.926;6.870;2023-07-31T08:15:24;7.17;;;3.30;;
9712;SDS011;4895;50.926;6.870;2023-07-31T08:17:49;9.27;;;3.90;;
9712;SDS011;4895;50.926;6.870;2023-07-31T08:20:15;12.60;;;4.37;;
9712;SDS011;4895;50.926;6.870;2023-07-31T08:22:40;9.60;;;3.87;;
9712;SDS011;4895;50.926;6.870;2023-07-31T08:25:05;7.73;;;4.20;;
9712;SDS011;4895;50.926;6.870;2023-07-31T08:27:31;6.47;;;3.17;;
9712;SDS011;4895;50.926;6.870;2023-07-31T08:29:57;8.30;;;3.03;;
9712;SDS011;4895;50.926;6.870;2023-07-31T08:32:22;5.83;;;3.00;;
9712;SDS011;4895;50.926;6.870;2023-07-31T08:34:47;8.27;;;3.40;;
9712;SDS011;4895;50.926;6.870;2023-07-31T08:37:14;7.83;;;3.23;;
9712;SDS011;4895;50.926;6.870;2023-07-31T08:39:39;7.87;;;3.60;;
9712;SDS011;4895;50.926;6.870;2023-07-31T08:42:07;7.43;;;3.10;;
9712;SDS011;4895;50.926;6.870;2023-07-31T08:44:33;9.73;;;3.70;;
9712;SDS011;4895;50.926;6.870;2023-07-31T08:46:59;9.03;;;4.27;;
9712;SDS011;4895;50.926;6.870;2023-07-31T08:49:24;9.73;;;5.30;;
9712;SDS011;4895;50.926;6.870;2023-07-31T08:51:50;8.83;;;3.03;;
9712;SDS011;4895;50.926;6.870;2023-07-31T08:54:17;6.90;;;3.70;;
9712;SDS011;4895;50.926;6.870;2023-07-31T08:56:42;7.57;;;3.40;;
9712;SDS011;4895;50.926;6.870;2023-07-31T08:59:08;9.37;;;3.37;;
9712;SDS011;4895;50.926;6.870;2023-07-31T09:01:36;7.47;;;3.17;;
9712;SDS011;4895;50.926;6.870;2023-07-31T09:04:06;8.20;;;3.83;;
9712;SDS011;4895;50.926;6.870;2023-07-31T09:06:33;7.63;;;3.23;;
9712;SDS011;4895;50.926;6.870;2023-07-31T09:08:59;4.33;;;2.97;;
9712;SDS011;4895;50.926;6.870;2023-07-31T09:11:24;9.17;;;3.80;;
9712;SDS011;4895;50.926;6.870;2023-07-31T09:13:50;7.87;;;3.33;;
9712;SDS011;4895;50.926;6.870;2023-07-31T09:16:15;5.83;;;2.50;;
9712;SDS011;4895;50.926;6.870;2023-07-31T09:18:53;4.63;;;2.97;;
9712;SDS011;4895;50.926;6.870;2023-07-31T09:21:21;9.07;;;3.30;;
9712;SDS011;4895;50.926;6.870;2023-07-31T09:23:47;7.07;;;3.23;;
9712;SDS011;4895;50.926;6.870;2023-07-31T09:29:18;5.70;;;3.10;;
9712;SDS011;4895;50.926;6.870;2023-07-31T09:31:44;6.33;;;2.70;;
9712;SDS011;4895;50.926;6.870;2023-07-31T09:34:10;10.77;;;3.50;;
9712;SDS011;4895;50.926;6.870;2023-07-31T09:39:08;8.37;;;3.23;;
9712;SDS011;4895;50.926;6.870;2023-07-31T09:41:41;7.07;;;3.40;;
9712;SDS011;4895;50.926;6.870;2023-07-31T09:44:08;8.50;;;2.87;;
9712;SDS011;4895;50.926;6.870;2023-07-31T09:46:35;11.70;;;3.23;;
9712;SDS011;4895;50.926;6.870;2023-07-31T09:49:08;6.93;;;3.27;;
9712;SDS011;4895;50.926;6.870;2023-07-31T09:51:34;8.60;;;3.93;;
9712;SDS011;4895;50.926;6.870;2023-07-31T09:54:03;6.97;;;3.33;;
9712;SDS011;4895;50.926;6.870;2023-07-31T09:56:42;7.50;;;2.63;;
9712;SDS011;4895;50.926;6.870;2023-07-31T09:59:10;5.03;;;2.70;;
9712;SDS011;4895;50.926;6.870;2023-07-31T10:01:37;6.23;;;3.00;;
9712;SDS011;4895;50.926;6.870;2023-07-31T10:04:03;6.37;;;2.60;;
9712;SDS011;4895;50.926;6.870;2023-07-31T10:06:29;6.90;;;2.50;;
9712;SDS011;4895;50.926;6.870;2023-07-31T10:08:55;6.97;;;3.00;;
9712;SDS011;4895;50.926;6.870;2023-07-31T10:11:21;6.60;;;3.00;;
9712;SDS011;4895;50.926;6.870;2023-07-31T10:13:47;5.63;;;3.10;;
9712;SDS011;4895;50.926;6.870;2023-07-31T10:16:13;10.07;;;3.43;;
9712;SDS011;4895;50.926;6.870;2023-07-31T10:18:40;10.00;;;3.70;;
9712;SDS011;4895;50.926;6.870;2023-07-31T10:21:06;4.53;;;2.63;;
9712;SDS011;4895;50.926;6.870;2023-07-31T10:23:31;5.70;;;3.30;;
9712;SDS011;4895;50.926;6.870;2023-07-31T10:25:56;8.97;;;3.50;;
9712;SDS011;4895;50.926;6.870;2023-07-31T10:28:22;6.20;;;3.30;;
9712;SDS011;4895;50.926;6.870;2023-07-31T10:30:47;7.70;;;3.10;;
9712;SDS011;4895;50.926;6.870;2023-07-31T10:33:14;7.93;;;3.90;;
9712;SDS011;4895;50.926;6.870;2023-07-31T10:35:40;6.77;;;3.80;;
9712;SDS011;4895;50.926;6.870;2023-07-31T10:38:09;5.83;;;3.10;;
9712;SDS011;4895;50.926;6.870;2023-07-31T10:40:39;5.50;;;2.80;;
9712;SDS011;4895;50.926;6.870;2023-07-31T10:43:04;5.90;;;2.90;;
9712;SDS011;4895;50.926;6.870;2023-07-31T10:45:37;4.57;;;2.70;;
9712;SDS011;4895;50.926;6.870;2023-07-31T10:48:04;7.83;;;3.07;;
9712;SDS011;4895;50.926;6.870;2023-07-31T10:50:52;5.40;;;2.60;;
9712;SDS011;4895;50.926;6.870;2023-07-31T10:53:23;13.57;;;4.77;;
9712;SDS011;4895;50.926;6.870;2023-07-31T10:55:49;8.20;;;3.80;;
9712;SDS011;4895;50.926;6.870;2023-07-31T10:58:17;4.47;;;2.30;;
9712;SDS011;4895;50.926;6.870;2023-07-31T11:00:44;4.47;;;2.50;;
9712;SDS011;4895;50.926;6.870;2023-07-31T11:03:16;4.30;;;2.20;;
9712;SDS011;4895;50.926;6.870;2023-07-31T11:13:27;3.20;;;2.03;;
9712;SDS011;4895;50.926;6.870;2023-07-31T11:15:55;4.70;;;2.10;;
9712;SDS011;4895;50.926;6.870;2023-07-31T11:18:21;10.80;;;1.90;;
9712;SDS011;4895;50.926;6.870;2023-07-31T11:20:46;5.27;;;1.80;;
9712;SDS011;4895;50.926;6.870;2023-07-31T11:23:11;2.10;;;1.27;;
9712;SDS011;4895;50.926;6.870;2023-07-31T11:25:38;3.00;;;1.70;;
9712;SDS011;4895;50.926;6.870;2023-07-31T11:28:08;5.03;;;1.70;;
9712;SDS011;4895;50.926;6.870;2023-07-31T11:30:35;2.30;;;1.43;;
9712;SDS011;4895;50.926;6.870;2023-07-31T11:33:04;2.20;;;1.13;;
9712;SDS011;4895;50.926;6.870;2023-07-31T11:35:34;3.77;;;1.50;;
9712;SDS011;4895;50.926;6.870;2023-07-31T11:38:01;3.90;;;1.43;;
9712;SDS011;4895;50.926;6.870;2023-07-31T11:40:27;1.83;;;1.10;;
9712;SDS011;4895;50.926;6.870;2023-07-31T11:42:58;2.30;;;1.33;;
9712;SDS011;4895;50.926;6.870;2023-07-31T11:45:29;2.20;;;1.37;;
9712;SDS011;4895;50.926;6.870;2023-07-31T11:47:55;2.53;;;1.00;;
9712;SDS011;4895;50.926;6.870;2023-07-31T11:50:21;3.30;;;1.40;;
9712;SDS011;4895;50.926;6.870;2023-07-31T11:52:46;2.87;;;1.60;;
9712;SDS011;4895;50.926;6.870;2023-07-31T11:55:13;2.30;;;1.00;;
9712;SDS011;4895;50.926;6.870;2023-07-31T11:57:40;2.97;;;1.27;;
9712;SDS011;4895;50.926;6.870;2023-07-31T12:00:07;3.50;;;1.00;;
9712;SDS011;4895;50.926;6.870;2023-07-31T12:02:34;2.60;;;1.50;;
9712;SDS011;4895;50.926;6.870;2023-07-31T12:04:59;1.77;;;1.20;;
9712;SDS011;4895;50.926;6.870;2023-07-31T12:07:25;2.03;;;1.27;;
9712;SDS011;4895;50.926;6.870;2023-07-31T12:09:53;3.30;;;1.47;;
9712;SDS011;4895;50.926;6.870;2023-07-31T12:12:20;4.47;;;1.37;;
9712;SDS011;4895;50.926;6.870;2023-07-31T12:14:46;3.13;;;1.40;;
9712;SDS011;4895;50.926;6.870;2023-07-31T12:17:11;2.23;;;1.40;;
9712;SDS011;4895;50.926;6.870;2023-07-31T12:19:36;2.90;;;1.40;;
9712;SDS011;4895;50.926;6.870;2023-07-31T12:22:10;1.90;;;1.20;;
9712;SDS011;4895;50.926;6.870;2023-07-31T12:24:36;5.60;;;1.70;;
9712;SDS011;4895;50.926;6.870;2023-07-31T12:27:08;2.23;;;1.47;;
9712;SDS011;4895;50.926;6.870;2023-07-31T12:29:43;5.07;;;1.60;;
9712;SDS011;4895;50.926;6.870;2023-07-31T12:32:19;8.40;;;1.77;;
9712;SDS011;4895;50.926;6.870;2023-07-31T12:34:45;2.60;;;1.60;;
9712;SDS011;4895;50.926;6.870;2023-07-31T12:37:10;2.90;;;1.70;;
9712;SDS011;4895;50.926;6.870;2023-07-31T12:39:36;2.77;;;1.77;;
9712;SDS011;4895;50.926;6.870;2023-07-31T12:42:01;4.30;;;2.53;;
9712;SDS011;4895;50.926;6.870;2023-07-31T12:44:26;3.53;;;2.17;;
9712;SDS011;4895;50.926;6.870;2023-07-31T12:46:52;2.57;;;1.90;;
9712;SDS011;4895;50.926;6.870;2023-07-31T12:49:17;4.47;;;2.53;;
9712;SDS011;4895;50.926;6.870;2023-07-31T12:51:42;3.33;;;2.67;;
9712;SDS011;4895;50.926;6.870;2023-07-31T12:54:08;5.00;;;2.67;;
9712;SDS011;4895;50.926;6.870;2023-07-31T12:56:33;4.17;;;2.70;;
9712;SDS011;4895;50.926;6.870;2023-07-31T12:58:58;3.57;;;2.03;;
9712;SDS011;4895;50.926;6.870;2023-07-31T13:01:23;4.47;;;2.90;;
9712;SDS011;4895;50.926;6.870;2023-07-31T13:03:49;8.20;;;3.00;;
9712;SDS011;4895;50.926;6.870;2023-07-31T13:06:14;4.20;;;2.70;;
9712;SDS011;4895;50.926;6.870;2023-07-31T13:08:40;4.00;;;2.80;;
9712;SDS011;4895;50.926;6.870;2023-07-31T13:11:05;6.47;;;3.43;;
9712;SDS011;4895;50.926;6.870;2023-07-31T13:13:30;5.90;;;2.80;;
9712;SDS011;4895;50.926;6.870;2023-07-31T13:15:56;4.40;;;2.80;;
9712;SDS011;4895;50.926;6.870;2023-07-31T13:18:21;4.80;;;3.40;;
9712;SDS011;4895;50.926;6.870;2023-07-31T13:20:47;6.80;;;3.30;;
9712;SDS011;4895;50.926;6.870;2023-07-31T13:23:12;5.50;;;3.00;;
9712;SDS011;4895;50.926;6.870;2023-07-31T13:25:37;4.53;;;3.03;;
9712;SDS011;4895;50.926;6.870;2023-07-31T13:28:02;6.70;;;2.60;;
9712;SDS011;4895;50.926;6.870;2023-07-31T13:30:28;5.17;;;2.90;;
9712;SDS011;4895;50.926;6.870;2023-07-31T13:32:53;5.47;;;2.53;;
9712;SDS011;4895;50.926;6.870;2023-07-31T13:35:18;3.70;;;2.77;;
9712;SDS011;4895;50.926;6.870;2023-07-31T13:37:44;4.73;;;2.87;;
9712;SDS011;4895;50.926;6.870;2023-07-31T13:40:09;4.63;;;2.77;;
9712;SDS011;4895;50.926;6.870;2023-07-31T13:42:35;4.60;;;2.97;;
9712;SDS011;4895;50.926;6.870;2023-07-31T13:45:00;6.03;;;2.93;;
9712;SDS011;4895;50.926;6.870;2023-07-31T13:47:25;5.10;;;2.60;;
9712;SDS011;4895;50.926;6.870;2023-07-31T13:49:51;7.90;;;2.60;;
9712;SDS011;4895;50.926;6.870;2023-07-31T13:52:16;4.70;;;2.83;;
9712;SDS011;4895;50.926;6.870;2023-07-31T13:54:41;5.30;;;2.73;;
9712;SDS011;4895;50.926;6.870;2023-07-31T13:57:08;5.60;;;3.10;;
9712;SDS011;4895;50.926;6.870;2023-07-31T13:59:33;4.43;;;2.80;;
9712;SDS011;4895;50.926;6.870;2023-07-31T14:01:58;4.83;;;2.90;;
9712;SDS011;4895;50.926;6.870;2023-07-31T14:04:24;3.40;;;2.50;;
9712;SDS011;4895;50.926;6.870;2023-07-31T14:06:49;4.47;;;2.50;;
9712;SDS011;4895;50.926;6.870;2023-07-31T14:09:15;4.63;;;2.50;;
9712;SDS011;4895;50.926;6.870;2023-07-31T14:11:40;3.93;;;2.40;;
9712;SDS011;4895;50.926;6.870;2023-07-31T14:14:06;5.33;;;2.73;;
9712;SDS011;4895;50.926;6.870;2023-07-31T14:16:31;5.63;;;3.33;;
9712;SDS011;4895;50.926;6.870;2023-07-31T14:18:57;3.93;;;1.97;;
9712;SDS011;4895;50.926;6.870;2023-07-31T14:21:24;6.17;;;2.70;;
9712;SDS011;4895;50.926;6.870;2023-07-31T14:23:50;4.30;;;3.30;;
9712;SDS011;4895;50.926;6.870;2023-07-31T14:26:15;5.80;;;2.93;;
9712;SDS011;4895;50.926;6.870;2023-07-31T14:28:41;5.07;;;2.83;;
9712;SDS011;4895;50.926;6.870;2023-07-31T14:31:06;4.20;;;3.20;;
9712;SDS011;4895;50.926;6.870;2023-07-31T14:33:32;4.83;;;3.03;;
9712;SDS011;4895;50.926;6.870;2023-07-31T14:35:57;5.10;;;2.93;;
9712;SDS011;4895;50.926;6.870;2023-07-31T14:38:22;5.93;;;3.67;;
9712;SDS011;4895;50.926;6.870;2023-07-31T14:40:48;4.57;;;3.30;;
9712;SDS011;4895;50.926;6.870;2023-07-31T14:43:13;5.03;;;3.27;;
9712;SDS011;4895;50.926;6.870;2023-07-31T14:45:38;8.20;;;3.80;;
9712;SDS011;4895;50.926;6.870;2023-07-31T14:48:04;6.07;;;3.60;;
9712;SDS011;4895;50.926;6.870;2023-07-31T14:50:29;5.90;;;3.70;;
9712;SDS011;4895;50.926;6.870;2023-07-31T14:52:54;6.00;;;3.80;;
9712;SDS011;4895;50.926;6.870;2023-07-31T14:55:20;6.43;;;3.77;;
9712;SDS011;4895;50.926;6.870;2023-07-31T14:57:45;5.77;;;3.53;;
9712;SDS011;4895;50.926;6.870;2023-07-31T15:00:10;5.90;;;3.40;;
9712;SDS011;4895;50.926;6.870;2023-07-31T15:02:36;5.47;;;3.30;;
9712;SDS011;4895;50.926;6.870;2023-07-31T15:05:02;5.23;;;3.50;;
9712;SDS011;4895;50.926;6.870;2023-07-31T15:07:28;7.00;;;3.90;;
9712;SDS011;4895;50.926;6.870;2023-07-31T15:09:53;4.60;;;3.50;;
9712;SDS011;4895;50.926;6.870;2023-07-31T15:12:19;6.50;;;3.73;;
9712;SDS011;4895;50.926;6.870;2023-07-31T15:14:44;5.33;;;3.30;;
9712;SDS011;4895;50.926;6.870;2023-07-31T15:17:09;5.20;;;3.57;;
9712;SDS011;4895;50.926;6.870;2023-07-31T15:19:35;6.07;;;3.70;;
9712;SDS011;4895;50.926;6.870;2023-07-31T15:22:01;8.10;;;4.90;;
9712;SDS011;4895;50.926;6.870;2023-07-31T15:24:28;5.83;;;3.93;;
9712;SDS011;4895;50.926;6.870;2023-07-31T15:26:53;12.23;;;3.77;;